sensor_id;sensor_type;location;lat;lon;timestamp;P1;durP1;ratioP1;P2;durP2;ratioP2
77880;SDS011;67077;50.298;18.996;2024-03-02T00:01:51;119.00;;;57.90;;
77880;SDS011;67077;50.298;18.996;2024-03-02T00:04:19;119.10;;;54.00;;
77880;SDS011;67077;50.298;18.996;2024-03-02T00:06:47;115.20;;;54.50;;
77880;SDS011;67077;50.298;18.996;2024-03-02T00:09:15;118.70;;;55.50;;
77880;SDS011;67077;50.298;18.996;2024-03-02T00:11:43;110.10;;;53.50;;
77880;SDS011;67077;50.298;18.996;2024-03-02T00:14:11;114.70;;;54.00;;
77880;SDS011;67077;50.298;18.996;2024-03-02T00:16:39;119.80;;;55.30;;
77880;SDS011;67077;50.298;18.996;2024-03-02T00:19:08;107.40;;;51.40;;
77880;SDS011;67077;50.298;18.996;2024-03-02T00:21:36;107.50;;;53.00;;
77880;SDS011;67077;50.298;18.996;2024-03-02T00:24:28;105.30;;;50.40;;
77880;SDS011;67077;50.298;18.996;2024-03-02T00:27:01;110.40;;;50.70;;
77880;SDS011;67077;50.298;18.996;2024-03-02T00:29:31;107.00;;;50.00;;
77880;SDS011;67077;50.298;18.996;2024-03-02T00:31:59;98.90;;;49.60;;
77880;SDS011;67077;50.298;18.996;2024-03-02T00:34:28;95.80;;;47.90;;
77880;SDS011;67077;50.298;18.996;2024-03-02T00:36:57;114.40;;;54.80;;
77880;SDS011;67077;50.298;18.996;2024-03-02T00:39:28;104.60;;;51.10;;
77880;SDS011;67077;50.298;18.996;2024-03-02T00:41:57;111.40;;;53.10;;
77880;SDS011;67077;50.298;18.996;2024-03-02T00:44:25;99.20;;;50.20;;
77880;SDS011;67077;50.298;18.996;2024-03-02T00:47:01;102.70;;;48.90;;
77880;SDS011;67077;50.298;18.996;2024-03-02T00:49:29;101.80;;;50.30;;
77880;SDS011;67077;50.298;18.996;2024-03-02T00:51:57;101.70;;;49.20;;
77880;SDS011;67077;50.298;18.996;2024-03-02T00:54:26;98.20;;;47.80;;
77880;SDS011;67077;50.298;18.996;2024-03-02T00:56:56;95.30;;;46.90;;
77880;SDS011;67077;50.298;18.996;2024-03-02T00:59:26;91.90;;;45.40;;
77880;SDS011;67077;50.298;18.996;2024-03-02T01:01:54;90.10;;;44.90;;
77880;SDS011;67077;50.298;18.996;2024-03-02T01:04:22;91.40;;;45.80;;
77880;SDS011;67077;50.298;18.996;2024-03-02T01:06:50;93.70;;;45.40;;
77880;SDS011;67077;50.298;18.996;2024-03-02T01:09:18;97.30;;;46.20;;
77880;SDS011;67077;50.298;18.996;2024-03-02T01:11:46;92.50;;;46.20;;
77880;SDS011;67077;50.298;18.996;2024-03-02T01:14:14;97.90;;;45.80;;
77880;SDS011;67077;50.298;18.996;2024-03-02T01:16:42;87.90;;;43.00;;
77880;SDS011;67077;50.298;18.996;2024-03-02T01:19:10;90.10;;;44.10;;
77880;SDS011;67077;50.298;18.996;2024-03-02T01:21:38;98.40;;;47.70;;
77880;SDS011;67077;50.298;18.996;2024-03-02T01:24:05;102.00;;;51.10;;
77880;SDS011;67077;50.298;18.996;2024-03-02T01:26:33;101.90;;;48.30;;
77880;SDS011;67077;50.298;18.996;2024-03-02T01:29:01;105.40;;;51.60;;
77880;SDS011;67077;50.298;18.996;2024-03-02T01:31:29;98.80;;;48.00;;
77880;SDS011;67077;50.298;18.996;2024-03-02T01:33:57;106.20;;;52.30;;
77880;SDS011;67077;50.298;18.996;2024-03-02T01:36:24;108.40;;;53.00;;
77880;SDS011;67077;50.298;18.996;2024-03-02T01:38:52;104.10;;;50.90;;
77880;SDS011;67077;50.298;18.996;2024-03-02T01:41:20;99.80;;;49.00;;
77880;SDS011;67077;50.298;18.996;2024-03-02T01:43:48;95.90;;;47.60;;
77880;SDS011;67077;50.298;18.996;2024-03-02T01:46:16;97.40;;;47.00;;
77880;SDS011;67077;50.298;18.996;2024-03-02T01:48:46;87.60;;;42.90;;
77880;SDS011;67077;50.298;18.996;2024-03-02T01:51:15;89.50;;;43.80;;
77880;SDS011;67077;50.298;18.996;2024-03-02T01:53:43;83.70;;;41.00;;
77880;SDS011;67077;50.298;18.996;2024-03-02T01:56:10;84.80;;;41.00;;
77880;SDS011;67077;50.298;18.996;2024-03-02T01:58:39;83.20;;;40.30;;
77880;SDS011;67077;50.298;18.996;2024-03-02T02:01:06;77.60;;;38.50;;
77880;SDS011;67077;50.298;18.996;2024-03-02T02:03:34;68.20;;;36.20;;
77880;SDS011;67077;50.298;18.996;2024-03-02T02:06:02;75.90;;;38.00;;
77880;SDS011;67077;50.298;18.996;2024-03-02T02:08:30;80.80;;;39.90;;
77880;SDS011;67077;50.298;18.996;2024-03-02T02:10:59;82.50;;;39.50;;
77880;SDS011;67077;50.298;18.996;2024-03-02T02:13:27;74.20;;;37.40;;
77880;SDS011;67077;50.298;18.996;2024-03-02T02:15:54;72.30;;;36.70;;
77880;SDS011;67077;50.298;18.996;2024-03-02T02:18:22;75.50;;;37.30;;
77880;SDS011;67077;50.298;18.996;2024-03-02T02:20:50;73.80;;;37.80;;
77880;SDS011;67077;50.298;18.996;2024-03-02T02:23:18;72.60;;;38.10;;
77880;SDS011;67077;50.298;18.996;2024-03-02T02:25:46;83.90;;;40.60;;
77880;SDS011;67077;50.298;18.996;2024-03-02T02:28:14;85.70;;;42.20;;
77880;SDS011;67077;50.298;18.996;2024-03-02T02:30:41;76.30;;;39.10;;
77880;SDS011;67077;50.298;18.996;2024-03-02T02:33:13;82.90;;;41.20;;
77880;SDS011;67077;50.298;18.996;2024-03-02T02:35:41;81.40;;;40.70;;
77880;SDS011;67077;50.298;18.996;2024-03-02T02:38:09;79.30;;;40.80;;
77880;SDS011;67077;50.298;18.996;2024-03-02T02:40:36;77.70;;;40.00;;
77880;SDS011;67077;50.298;18.996;2024-03-02T02:43:04;71.90;;;37.30;;
77880;SDS011;67077;50.298;18.996;2024-03-02T02:45:32;79.10;;;39.50;;
77880;SDS011;67077;50.298;18.996;2024-03-02T02:48:00;77.50;;;39.30;;
77880;SDS011;67077;50.298;18.996;2024-03-02T02:50:30;77.00;;;39.10;;
77880;SDS011;67077;50.298;18.996;2024-03-02T02:52:58;73.70;;;38.60;;
77880;SDS011;67077;50.298;18.996;2024-03-02T02:55:26;80.00;;;39.00;;
77880;SDS011;67077;50.298;18.996;2024-03-02T02:57:54;74.80;;;38.30;;
77880;SDS011;67077;50.298;18.996;2024-03-02T03:00:21;80.70;;;39.90;;
77880;SDS011;67077;50.298;18.996;2024-03-02T03:02:50;73.30;;;38.00;;
77880;SDS011;67077;50.298;18.996;2024-03-02T03:05:18;74.90;;;38.80;;
77880;SDS011;67077;50.298;18.996;2024-03-02T03:07:47;75.20;;;37.20;;
77880;SDS011;67077;50.298;18.996;2024-03-02T03:10:17;72.30;;;37.20;;
77880;SDS011;67077;50.298;18.996;2024-03-02T03:12:45;75.60;;;38.00;;
77880;SDS011;67077;50.298;18.996;2024-03-02T03:15:14;73.00;;;37.20;;
77880;SDS011;67077;50.298;18.996;2024-03-02T03:17:43;75.00;;;37.30;;
77880;SDS011;67077;50.298;18.996;2024-03-02T03:20:12;75.40;;;37.20;;
77880;SDS011;67077;50.298;18.996;2024-03-02T03:22:40;73.90;;;36.90;;
77880;SDS011;67077;50.298;18.996;2024-03-02T03:25:08;74.60;;;36.70;;
77880;SDS011;67077;50.298;18.996;2024-03-02T03:27:35;76.30;;;37.40;;
77880;SDS011;67077;50.298;18.996;2024-03-02T03:30:03;69.20;;;36.70;;
77880;SDS011;67077;50.298;18.996;2024-03-02T03:32:33;75.90;;;37.50;;
77880;SDS011;67077;50.298;18.996;2024-03-02T03:35:01;75.30;;;38.40;;
77880;SDS011;67077;50.298;18.996;2024-03-02T03:37:29;70.00;;;36.30;;
77880;SDS011;67077;50.298;18.996;2024-03-02T03:40:00;74.60;;;37.10;;
77880;SDS011;67077;50.298;18.996;2024-03-02T03:42:28;67.80;;;35.30;;
77880;SDS011;67077;50.298;18.996;2024-03-02T03:44:56;73.80;;;37.30;;
77880;SDS011;67077;50.298;18.996;2024-03-02T03:47:24;70.10;;;35.90;;
77880;SDS011;67077;50.298;18.996;2024-03-02T03:49:52;70.70;;;36.20;;
77880;SDS011;67077;50.298;18.996;2024-03-02T03:52:20;76.20;;;35.90;;
77880;SDS011;67077;50.298;18.996;2024-03-02T03:54:48;68.70;;;35.00;;
77880;SDS011;67077;50.298;18.996;2024-03-02T03:57:16;65.50;;;33.40;;
77880;SDS011;67077;50.298;18.996;2024-03-02T03:59:44;70.70;;;34.50;;
77880;SDS011;67077;50.298;18.996;2024-03-02T04:02:13;68.80;;;34.20;;
77880;SDS011;67077;50.298;18.996;2024-03-02T04:04:41;70.00;;;34.30;;
77880;SDS011;67077;50.298;18.996;2024-03-02T04:07:09;65.50;;;33.90;;
77880;SDS011;67077;50.298;18.996;2024-03-02T04:09:37;66.20;;;33.00;;
77880;SDS011;67077;50.298;18.996;2024-03-02T04:12:05;66.50;;;32.60;;
77880;SDS011;67077;50.298;18.996;2024-03-02T04:14:33;67.60;;;32.50;;
77880;SDS011;67077;50.298;18.996;2024-03-02T04:17:01;62.40;;;32.00;;
77880;SDS011;67077;50.298;18.996;2024-03-02T04:19:29;62.60;;;32.80;;
77880;SDS011;67077;50.298;18.996;2024-03-02T04:21:56;62.60;;;31.90;;
77880;SDS011;67077;50.298;18.996;2024-03-02T04:24:24;64.30;;;32.90;;
77880;SDS011;67077;50.298;18.996;2024-03-02T04:26:52;62.40;;;33.20;;
77880;SDS011;67077;50.298;18.996;2024-03-02T04:29:20;61.30;;;33.00;;
77880;SDS011;67077;50.298;18.996;2024-03-02T04:31:48;63.80;;;33.80;;
77880;SDS011;67077;50.298;18.996;2024-03-02T04:34:16;70.00;;;35.80;;
77880;SDS011;67077;50.298;18.996;2024-03-02T04:36:44;64.10;;;32.50;;
77880;SDS011;67077;50.298;18.996;2024-03-02T04:39:11;70.30;;;35.10;;
77880;SDS011;67077;50.298;18.996;2024-03-02T04:41:39;67.60;;;34.00;;
77880;SDS011;67077;50.298;18.996;2024-03-02T04:44:07;63.40;;;32.90;;
77880;SDS011;67077;50.298;18.996;2024-03-02T04:46:35;64.20;;;33.40;;
77880;SDS011;67077;50.298;18.996;2024-03-02T04:49:03;67.30;;;32.90;;
77880;SDS011;67077;50.298;18.996;2024-03-02T04:51:31;68.60;;;33.30;;
77880;SDS011;67077;50.298;18.996;2024-03-02T04:53:58;64.10;;;32.20;;
77880;SDS011;67077;50.298;18.996;2024-03-02T04:56:26;63.40;;;32.60;;
77880;SDS011;67077;50.298;18.996;2024-03-02T04:59:00;64.50;;;33.70;;
77880;SDS011;67077;50.298;18.996;2024-03-02T05:01:28;65.60;;;34.10;;
77880;SDS011;67077;50.298;18.996;2024-03-02T05:03:56;64.00;;;32.50;;
77880;SDS011;67077;50.298;18.996;2024-03-02T05:06:24;60.30;;;32.70;;
77880;SDS011;67077;50.298;18.996;2024-03-02T05:08:51;61.50;;;32.60;;
77880;SDS011;67077;50.298;18.996;2024-03-02T05:11:19;66.50;;;33.60;;
77880;SDS011;67077;50.298;18.996;2024-03-02T05:14:16;62.80;;;33.40;;
77880;SDS011;67077;50.298;18.996;2024-03-02T05:16:43;68.00;;;34.70;;
77880;SDS011;67077;50.298;18.996;2024-03-02T05:19:11;68.90;;;34.50;;
77880;SDS011;67077;50.298;18.996;2024-03-02T05:21:39;67.40;;;35.10;;
77880;SDS011;67077;50.298;18.996;2024-03-02T05:24:07;61.80;;;33.10;;
77880;SDS011;67077;50.298;18.996;2024-03-02T05:26:35;67.20;;;33.70;;
77880;SDS011;67077;50.298;18.996;2024-03-02T05:29:02;64.90;;;32.70;;
77880;SDS011;67077;50.298;18.996;2024-03-02T05:31:30;64.40;;;33.40;;
77880;SDS011;67077;50.298;18.996;2024-03-02T05:33:58;64.50;;;33.30;;
77880;SDS011;67077;50.298;18.996;2024-03-02T05:36:26;64.90;;;33.70;;
77880;SDS011;67077;50.298;18.996;2024-03-02T05:38:54;65.00;;;33.60;;
77880;SDS011;67077;50.298;18.996;2024-03-02T05:41:22;62.40;;;32.00;;
77880;SDS011;67077;50.298;18.996;2024-03-02T05:43:50;64.60;;;34.00;;
77880;SDS011;67077;50.298;18.996;2024-03-02T05:46:18;63.60;;;32.60;;
77880;SDS011;67077;50.298;18.996;2024-03-02T05:48:46;59.30;;;31.30;;
77880;SDS011;67077;50.298;18.996;2024-03-02T05:51:13;63.30;;;31.50;;
77880;SDS011;67077;50.298;18.996;2024-03-02T05:53:41;65.90;;;32.60;;
77880;SDS011;67077;50.298;18.996;2024-03-02T05:56:09;62.80;;;31.30;;
77880;SDS011;67077;50.298;18.996;2024-03-02T05:58:37;62.20;;;31.90;;
77880;SDS011;67077;50.298;18.996;2024-03-02T06:01:24;64.00;;;31.90;;
77880;SDS011;67077;50.298;18.996;2024-03-02T06:03:56;68.50;;;32.60;;
77880;SDS011;67077;50.298;18.996;2024-03-02T06:06:24;63.50;;;33.30;;
77880;SDS011;67077;50.298;18.996;2024-03-02T06:08:52;66.10;;;34.10;;
77880;SDS011;67077;50.298;18.996;2024-03-02T06:11:20;66.80;;;33.50;;
77880;SDS011;67077;50.298;18.996;2024-03-02T06:13:48;62.80;;;32.80;;
77880;SDS011;67077;50.298;18.996;2024-03-02T06:16:16;65.90;;;32.90;;
77880;SDS011;67077;50.298;18.996;2024-03-02T06:18:43;67.40;;;33.20;;
77880;SDS011;67077;50.298;18.996;2024-03-02T06:21:11;66.50;;;33.80;;
77880;SDS011;67077;50.298;18.996;2024-03-02T06:23:39;69.70;;;33.80;;
77880;SDS011;67077;50.298;18.996;2024-03-02T06:26:07;68.40;;;35.20;;
77880;SDS011;67077;50.298;18.996;2024-03-02T06:28:35;67.90;;;33.90;;
77880;SDS011;67077;50.298;18.996;2024-03-02T06:31:03;66.20;;;34.90;;
77880;SDS011;67077;50.298;18.996;2024-03-02T06:33:31;65.90;;;33.60;;
77880;SDS011;67077;50.298;18.996;2024-03-02T06:35:58;66.30;;;34.50;;
77880;SDS011;67077;50.298;18.996;2024-03-02T06:38:26;74.50;;;34.50;;
77880;SDS011;67077;50.298;18.996;2024-03-02T06:40:54;70.60;;;36.00;;
77880;SDS011;67077;50.298;18.996;2024-03-02T06:43:22;68.90;;;33.90;;
77880;SDS011;67077;50.298;18.996;2024-03-02T06:45:51;70.20;;;34.60;;
77880;SDS011;67077;50.298;18.996;2024-03-02T06:48:19;69.70;;;34.00;;
77880;SDS011;67077;50.298;18.996;2024-03-02T06:50:50;72.30;;;34.90;;
77880;SDS011;67077;50.298;18.996;2024-03-02T06:53:19;73.50;;;35.40;;
77880;SDS011;67077;50.298;18.996;2024-03-02T06:55:47;76.70;;;36.00;;
77880;SDS011;67077;50.298;18.996;2024-03-02T06:58:15;73.60;;;35.80;;
77880;SDS011;67077;50.298;18.996;2024-03-02T07:00:43;69.90;;;35.60;;
77880;SDS011;67077;50.298;18.996;2024-03-02T07:05:43;65.80;;;33.70;;
77880;SDS011;67077;50.298;18.996;2024-03-02T07:08:11;71.20;;;33.70;;
77880;SDS011;67077;50.298;18.996;2024-03-02T07:10:38;69.80;;;33.80;;
77880;SDS011;67077;50.298;18.996;2024-03-02T07:13:06;71.30;;;34.40;;
77880;SDS011;67077;50.298;18.996;2024-03-02T07:15:34;68.50;;;33.70;;
77880;SDS011;67077;50.298;18.996;2024-03-02T07:18:21;72.70;;;32.60;;
77880;SDS011;67077;50.298;18.996;2024-03-02T07:20:48;65.80;;;32.10;;
77880;SDS011;67077;50.298;18.996;2024-03-02T07:23:17;57.20;;;31.00;;
77880;SDS011;67077;50.298;18.996;2024-03-02T07:25:45;62.70;;;32.30;;
77880;SDS011;67077;50.298;18.996;2024-03-02T07:28:12;64.50;;;30.30;;
77880;SDS011;67077;50.298;18.996;2024-03-02T07:30:42;59.30;;;30.40;;
77880;SDS011;67077;50.298;18.996;2024-03-02T07:33:10;56.90;;;30.70;;
77880;SDS011;67077;50.298;18.996;2024-03-02T07:35:38;53.80;;;29.40;;
77880;SDS011;67077;50.298;18.996;2024-03-02T07:38:06;55.70;;;30.50;;
77880;SDS011;67077;50.298;18.996;2024-03-02T07:40:34;59.70;;;30.10;;
77880;SDS011;67077;50.298;18.996;2024-03-02T07:43:02;58.90;;;30.40;;
77880;SDS011;67077;50.298;18.996;2024-03-02T07:45:30;55.50;;;30.30;;
77880;SDS011;67077;50.298;18.996;2024-03-02T07:47:58;59.10;;;30.10;;
77880;SDS011;67077;50.298;18.996;2024-03-02T07:50:26;59.00;;;32.60;;
77880;SDS011;67077;50.298;18.996;2024-03-02T07:52:53;60.80;;;33.40;;
77880;SDS011;67077;50.298;18.996;2024-03-02T07:55:21;61.30;;;35.00;;
77880;SDS011;67077;50.298;18.996;2024-03-02T07:57:51;68.40;;;37.30;;
77880;SDS011;67077;50.298;18.996;2024-03-02T08:00:20;72.20;;;39.70;;
77880;SDS011;67077;50.298;18.996;2024-03-02T08:02:49;71.60;;;40.50;;
77880;SDS011;67077;50.298;18.996;2024-03-02T08:05:22;71.60;;;40.30;;
77880;SDS011;67077;50.298;18.996;2024-03-02T08:07:51;73.60;;;41.30;;
77880;SDS011;67077;50.298;18.996;2024-03-02T08:10:22;70.50;;;40.80;;
77880;SDS011;67077;50.298;18.996;2024-03-02T08:12:49;68.20;;;37.70;;
77880;SDS011;67077;50.298;18.996;2024-03-02T08:15:17;65.60;;;37.10;;
77880;SDS011;67077;50.298;18.996;2024-03-02T08:17:45;68.00;;;36.60;;
77880;SDS011;67077;50.298;18.996;2024-03-02T08:20:17;66.10;;;35.80;;
77880;SDS011;67077;50.298;18.996;2024-03-02T08:22:44;63.10;;;35.20;;
77880;SDS011;67077;50.298;18.996;2024-03-02T08:25:12;60.90;;;34.60;;
77880;SDS011;67077;50.298;18.996;2024-03-02T08:27:40;61.60;;;33.50;;
77880;SDS011;67077;50.298;18.996;2024-03-02T08:30:09;56.60;;;32.50;;
77880;SDS011;67077;50.298;18.996;2024-03-02T08:32:38;60.40;;;33.40;;
77880;SDS011;67077;50.298;18.996;2024-03-02T08:35:06;62.50;;;35.80;;
77880;SDS011;67077;50.298;18.996;2024-03-02T08:37:34;65.80;;;37.50;;
77880;SDS011;67077;50.298;18.996;2024-03-02T08:40:05;63.80;;;37.40;;
77880;SDS011;67077;50.298;18.996;2024-03-02T08:42:34;64.80;;;37.00;;
77880;SDS011;67077;50.298;18.996;2024-03-02T08:45:02;70.10;;;37.70;;
77880;SDS011;67077;50.298;18.996;2024-03-02T08:47:32;64.60;;;37.00;;
77880;SDS011;67077;50.298;18.996;2024-03-02T08:50:00;62.30;;;35.80;;
77880;SDS011;67077;50.298;18.996;2024-03-02T08:52:28;63.80;;;35.70;;
77880;SDS011;67077;50.298;18.996;2024-03-02T08:54:56;64.30;;;35.30;;
77880;SDS011;67077;50.298;18.996;2024-03-02T08:57:24;59.60;;;33.40;;
77880;SDS011;67077;50.298;18.996;2024-03-02T08:59:52;57.00;;;34.30;;
77880;SDS011;67077;50.298;18.996;2024-03-02T09:02:20;57.30;;;32.90;;
77880;SDS011;67077;50.298;18.996;2024-03-02T09:04:48;59.50;;;32.70;;
77880;SDS011;67077;50.298;18.996;2024-03-02T09:07:16;59.70;;;33.30;;
77880;SDS011;67077;50.298;18.996;2024-03-02T09:09:44;57.90;;;31.90;;
77880;SDS011;67077;50.298;18.996;2024-03-02T09:12:12;57.60;;;33.10;;
77880;SDS011;67077;50.298;18.996;2024-03-02T09:14:40;62.60;;;34.40;;
77880;SDS011;67077;50.298;18.996;2024-03-02T09:17:08;65.30;;;35.40;;
77880;SDS011;67077;50.298;18.996;2024-03-02T09:19:38;69.20;;;36.80;;
77880;SDS011;67077;50.298;18.996;2024-03-02T09:22:06;70.50;;;38.70;;
77880;SDS011;67077;50.298;18.996;2024-03-02T09:24:34;72.30;;;39.50;;
77880;SDS011;67077;50.298;18.996;2024-03-02T09:27:02;68.60;;;38.60;;
77880;SDS011;67077;50.298;18.996;2024-03-02T09:29:30;69.10;;;40.30;;
77880;SDS011;67077;50.298;18.996;2024-03-02T09:31:58;75.80;;;42.10;;
77880;SDS011;67077;50.298;18.996;2024-03-02T09:34:27;79.70;;;41.30;;
77880;SDS011;67077;50.298;18.996;2024-03-02T09:36:55;78.30;;;41.80;;
77880;SDS011;67077;50.298;18.996;2024-03-02T09:39:23;70.50;;;40.80;;
77880;SDS011;67077;50.298;18.996;2024-03-02T09:41:52;70.90;;;40.70;;
77880;SDS011;67077;50.298;18.996;2024-03-02T09:44:21;73.50;;;40.10;;
77880;SDS011;67077;50.298;18.996;2024-03-02T09:46:49;70.50;;;38.80;;
77880;SDS011;67077;50.298;18.996;2024-03-02T09:49:17;72.90;;;40.90;;
77880;SDS011;67077;50.298;18.996;2024-03-02T09:51:46;71.70;;;40.20;;
77880;SDS011;67077;50.298;18.996;2024-03-02T09:54:16;70.60;;;39.00;;
77880;SDS011;67077;50.298;18.996;2024-03-02T09:56:45;65.50;;;37.40;;
77880;SDS011;67077;50.298;18.996;2024-03-02T09:59:13;62.50;;;36.60;;
77880;SDS011;67077;50.298;18.996;2024-03-02T10:01:57;61.70;;;34.10;;
77880;SDS011;67077;50.298;18.996;2024-03-02T10:07:10;61.60;;;33.70;;
77880;SDS011;67077;50.298;18.996;2024-03-02T10:09:40;65.50;;;35.20;;
77880;SDS011;67077;50.298;18.996;2024-03-02T10:12:15;61.00;;;33.90;;
77880;SDS011;67077;50.298;18.996;2024-03-02T10:14:44;57.40;;;33.80;;
77880;SDS011;67077;50.298;18.996;2024-03-02T10:17:13;65.50;;;35.50;;
77880;SDS011;67077;50.298;18.996;2024-03-02T10:19:43;62.40;;;34.80;;
77880;SDS011;67077;50.298;18.996;2024-03-02T10:22:11;60.90;;;35.40;;
77880;SDS011;67077;50.298;18.996;2024-03-02T10:24:40;62.20;;;34.50;;
77880;SDS011;67077;50.298;18.996;2024-03-02T10:27:22;62.80;;;35.90;;
77880;SDS011;67077;50.298;18.996;2024-03-02T10:29:53;62.70;;;35.50;;
77880;SDS011;67077;50.298;18.996;2024-03-02T10:32:22;61.10;;;33.90;;
77880;SDS011;67077;50.298;18.996;2024-03-02T10:34:50;62.10;;;35.80;;
77880;SDS011;67077;50.298;18.996;2024-03-02T10:37:18;69.10;;;37.50;;
77880;SDS011;67077;50.298;18.996;2024-03-02T10:39:53;67.50;;;37.30;;
77880;SDS011;67077;50.298;18.996;2024-03-02T10:42:21;63.40;;;36.50;;
77880;SDS011;67077;50.298;18.996;2024-03-02T10:44:50;64.60;;;36.80;;
77880;SDS011;67077;50.298;18.996;2024-03-02T10:47:19;62.50;;;37.10;;
77880;SDS011;67077;50.298;18.996;2024-03-02T10:49:59;59.80;;;35.30;;
77880;SDS011;67077;50.298;18.996;2024-03-02T10:52:29;69.90;;;38.70;;
77880;SDS011;67077;50.298;18.996;2024-03-02T10:54:57;63.40;;;37.50;;
77880;SDS011;67077;50.298;18.996;2024-03-02T10:57:24;68.50;;;39.40;;
77880;SDS011;67077;50.298;18.996;2024-03-02T10:59:56;63.30;;;39.00;;
77880;SDS011;67077;50.298;18.996;2024-03-02T11:02:28;65.50;;;37.40;;
77880;SDS011;67077;50.298;18.996;2024-03-02T11:04:59;73.40;;;39.40;;
77880;SDS011;67077;50.298;18.996;2024-03-02T11:10:01;59.70;;;34.60;;
77880;SDS011;67077;50.298;18.996;2024-03-02T11:12:37;56.00;;;34.00;;
77880;SDS011;67077;50.298;18.996;2024-03-02T11:15:26;53.50;;;31.70;;
77880;SDS011;67077;50.298;18.996;2024-03-02T11:17:55;51.80;;;29.00;;
77880;SDS011;67077;50.298;18.996;2024-03-02T11:20:24;49.00;;;27.30;;
77880;SDS011;67077;50.298;18.996;2024-03-02T11:22:53;48.10;;;27.20;;
77880;SDS011;67077;50.298;18.996;2024-03-02T11:25:24;44.70;;;25.70;;
77880;SDS011;67077;50.298;18.996;2024-03-02T11:33:05;44.90;;;24.40;;
77880;SDS011;67077;50.298;18.996;2024-03-02T11:35:35;41.10;;;23.50;;
77880;SDS011;67077;50.298;18.996;2024-03-02T11:38:04;40.80;;;23.50;;
77880;SDS011;67077;50.298;18.996;2024-03-02T11:40:34;40.70;;;23.50;;
77880;SDS011;67077;50.298;18.996;2024-03-02T11:43:04;42.10;;;23.80;;
77880;SDS011;67077;50.298;18.996;2024-03-02T11:45:37;42.60;;;22.10;;
77880;SDS011;67077;50.298;18.996;2024-03-02T12:04:51;36.00;;;19.70;;
77880;SDS011;67077;50.298;18.996;2024-03-02T12:11:36;31.50;;;19.10;;
77880;SDS011;67077;50.298;18.996;2024-03-02T12:19:51;34.10;;;17.60;;
77880;SDS011;67077;50.298;18.996;2024-03-02T12:22:18;30.70;;;17.50;;
77880;SDS011;67077;50.298;18.996;2024-03-02T12:24:46;30.40;;;17.20;;
77880;SDS011;67077;50.298;18.996;2024-03-02T12:27:14;29.80;;;17.50;;
77880;SDS011;67077;50.298;18.996;2024-03-02T12:29:43;27.80;;;16.70;;
77880;SDS011;67077;50.298;18.996;2024-03-02T12:32:11;31.80;;;16.40;;
77880;SDS011;67077;50.298;18.996;2024-03-02T12:34:39;30.90;;;17.40;;
77880;SDS011;67077;50.298;18.996;2024-03-02T12:37:07;27.90;;;16.10;;
77880;SDS011;67077;50.298;18.996;2024-03-02T12:39:35;25.10;;;14.90;;
77880;SDS011;67077;50.298;18.996;2024-03-02T12:42:02;28.20;;;15.00;;
77880;SDS011;67077;50.298;18.996;2024-03-02T12:44:30;25.00;;;13.70;;
77880;SDS011;67077;50.298;18.996;2024-03-02T12:46:58;21.80;;;12.60;;
77880;SDS011;67077;50.298;18.996;2024-03-02T12:49:26;21.90;;;13.80;;
77880;SDS011;67077;50.298;18.996;2024-03-02T12:51:56;25.60;;;14.90;;
77880;SDS011;67077;50.298;18.996;2024-03-02T12:54:25;24.00;;;14.30;;
77880;SDS011;67077;50.298;18.996;2024-03-02T12:56:54;28.30;;;16.90;;
77880;SDS011;67077;50.298;18.996;2024-03-02T12:59:24;29.90;;;17.40;;
77880;SDS011;67077;50.298;18.996;2024-03-02T13:01:54;31.70;;;17.80;;
77880;SDS011;67077;50.298;18.996;2024-03-02T13:04:26;29.30;;;18.60;;
77880;SDS011;67077;50.298;18.996;2024-03-02T13:06:56;31.30;;;18.30;;
77880;SDS011;67077;50.298;18.996;2024-03-02T13:09:25;31.10;;;18.40;;
77880;SDS011;67077;50.298;18.996;2024-03-02T13:11:53;32.40;;;18.80;;
77880;SDS011;67077;50.298;18.996;2024-03-02T13:14:22;31.90;;;17.90;;
77880;SDS011;67077;50.298;18.996;2024-03-02T13:16:52;30.30;;;17.20;;
77880;SDS011;67077;50.298;18.996;2024-03-02T13:19:20;32.10;;;17.40;;
77880;SDS011;67077;50.298;18.996;2024-03-02T13:21:48;32.50;;;17.40;;
77880;SDS011;67077;50.298;18.996;2024-03-02T13:24:15;30.10;;;16.80;;
77880;SDS011;67077;50.298;18.996;2024-03-02T13:26:43;28.40;;;18.00;;
77880;SDS011;67077;50.298;18.996;2024-03-02T13:29:11;30.50;;;17.90;;
77880;SDS011;67077;50.298;18.996;2024-03-02T13:31:39;35.90;;;18.90;;
77880;SDS011;67077;50.298;18.996;2024-03-02T13:34:07;29.10;;;17.60;;
77880;SDS011;67077;50.298;18.996;2024-03-02T13:36:36;27.10;;;16.60;;
77880;SDS011;67077;50.298;18.996;2024-03-02T13:39:03;30.50;;;18.00;;
77880;SDS011;67077;50.298;18.996;2024-03-02T13:41:37;29.20;;;16.90;;
77880;SDS011;67077;50.298;18.996;2024-03-02T13:44:05;35.30;;;18.60;;
77880;SDS011;67077;50.298;18.996;2024-03-02T13:46:33;36.80;;;18.70;;
77880;SDS011;67077;50.298;18.996;2024-03-02T13:49:00;32.80;;;18.90;;
77880;SDS011;67077;50.298;18.996;2024-03-02T13:51:29;29.30;;;18.80;;
77880;SDS011;67077;50.298;18.996;2024-03-02T13:53:57;36.10;;;19.70;;
77880;SDS011;67077;50.298;18.996;2024-03-02T13:56:24;36.30;;;19.50;;
77880;SDS011;67077;50.298;18.996;2024-03-02T13:58:52;33.30;;;19.90;;
77880;SDS011;67077;50.298;18.996;2024-03-02T14:01:20;34.70;;;20.90;;
77880;SDS011;67077;50.298;18.996;2024-03-02T14:03:48;31.50;;;18.30;;
77880;SDS011;67077;50.298;18.996;2024-03-02T14:06:16;33.40;;;19.50;;
77880;SDS011;67077;50.298;18.996;2024-03-02T14:08:44;29.90;;;19.00;;
77880;SDS011;67077;50.298;18.996;2024-03-02T14:11:13;29.10;;;18.90;;
77880;SDS011;67077;50.298;18.996;2024-03-02T14:13:42;30.80;;;18.70;;
77880;SDS011;67077;50.298;18.996;2024-03-02T14:16:12;33.50;;;20.00;;
77880;SDS011;67077;50.298;18.996;2024-03-02T14:18:40;31.30;;;18.20;;
77880;SDS011;67077;50.298;18.996;2024-03-02T14:21:08;29.80;;;18.90;;
77880;SDS011;67077;50.298;18.996;2024-03-02T14:23:36;32.50;;;19.00;;
77880;SDS011;67077;50.298;18.996;2024-03-02T14:26:04;33.30;;;19.80;;
77880;SDS011;67077;50.298;18.996;2024-03-02T14:28:31;31.10;;;19.60;;
77880;SDS011;67077;50.298;18.996;2024-03-02T14:30:59;31.90;;;19.60;;
77880;SDS011;67077;50.298;18.996;2024-03-02T14:33:28;36.80;;;22.00;;
77880;SDS011;67077;50.298;18.996;2024-03-02T14:35:56;43.00;;;24.30;;
77880;SDS011;67077;50.298;18.996;2024-03-02T14:38:24;35.40;;;21.00;;
77880;SDS011;67077;50.298;18.996;2024-03-02T14:40:52;39.10;;;22.00;;
77880;SDS011;67077;50.298;18.996;2024-03-02T14:43:19;33.50;;;20.90;;
77880;SDS011;67077;50.298;18.996;2024-03-02T14:45:47;36.50;;;20.90;;
77880;SDS011;67077;50.298;18.996;2024-03-02T14:48:16;36.40;;;21.70;;
77880;SDS011;67077;50.298;18.996;2024-03-02T14:50:44;33.40;;;21.00;;
77880;SDS011;67077;50.298;18.996;2024-03-02T14:53:12;38.40;;;23.20;;
77880;SDS011;67077;50.298;18.996;2024-03-02T14:55:39;35.40;;;22.00;;
77880;SDS011;67077;50.298;18.996;2024-03-02T14:58:07;34.80;;;20.80;;